createdAt,value
2022-10-13T00:01:19.853Z,4170.4
2022-10-13T00:07:04.851Z,4171.6
2022-10-13T00:12:43.694Z,4171.6
2022-10-13T00:18:31.026Z,4167.9
2022-10-13T00:24:06.299Z,4169.7
2022-10-13T00:29:41.268Z,4171.6
2022-10-13T00:35:15.923Z,4168.1
2022-10-13T00:40:51.375Z,4169.1
2022-10-13T00:46:26.253Z,4166.4
2022-10-13T00:52:00.889Z,4169.7
2022-10-13T00:57:36.057Z,4167.7
2022-10-13T01:03:12.913Z,4170.4
2022-10-13T01:08:48.030Z,4167.4
2022-10-13T01:14:23.512Z,4166.6
2022-10-13T01:19:59.228Z,4166.9
2022-10-13T01:25:34.421Z,4168.4
2022-10-13T01:31:09.778Z,4166.9
2022-10-13T01:36:44.576Z,4164.9
2022-10-13T01:42:22.033Z,4165.4
2022-10-13T01:47:57.521Z,4168.2
2022-10-13T01:53:33.307Z,4165.7
2022-10-13T01:59:09.269Z,4165.1
2022-10-13T02:04:44.286Z,4167.1
2022-10-13T02:10:19.447Z,4165.7
2022-10-13T02:15:55.453Z,4164.2
2022-10-13T02:21:32.085Z,4162.7
2022-10-13T02:27:07.088Z,4164.9
2022-10-13T02:32:42.191Z,4163.9
2022-10-13T02:38:17.868Z,4161.5
2022-10-13T02:43:52.838Z,4161.5
2022-10-13T02:49:32.020Z,4163
2022-10-13T02:55:16.765Z,4163.2
2022-10-13T03:00:52.738Z,4160.2
2022-10-13T03:06:29.993Z,4160.9
2022-10-13T03:12:05.464Z,4159.9
2022-10-13T03:17:40.649Z,4161.2
2022-10-13T03:23:15.770Z,4158.9
2022-10-13T03:28:52.190Z,4159.7
2022-10-13T03:34:28.487Z,4159.5
2022-10-13T03:40:03.568Z,4161.4
2022-10-13T03:45:45.282Z,4157.9
2022-10-13T03:51:22.618Z,4157.2
2022-10-13T03:56:58.599Z,4160.9
2022-10-13T04:02:34.002Z,4158.4
2022-10-13T04:08:08.787Z,4159.2
2022-10-13T04:13:43.775Z,4158.7
2022-10-13T04:19:19.081Z,4157.7
2022-10-13T04:24:55.189Z,4157.4
2022-10-13T04:30:30.095Z,4157.4
2022-10-13T04:36:04.960Z,4156.2
2022-10-13T04:41:40.943Z,4156.7
2022-10-13T04:47:15.917Z,4156.3
2022-10-13T04:52:51.032Z,4155.2
2022-10-13T04:58:26.887Z,4160.2
2022-10-13T05:04:13.160Z,4156
2022-10-13T05:09:49.456Z,4154.5
2022-10-13T05:15:24.314Z,4156.7
2022-10-13T05:20:59.067Z,4157.2
2022-10-13T05:26:44.810Z,4152.2
2022-10-13T05:32:29.976Z,4155.7
2022-10-13T05:38:05.879Z,4152.3
2022-10-13T05:43:41.630Z,4156.8
2022-10-13T05:49:16.338Z,4153.2
2022-10-13T05:54:51.351Z,4151.8
2022-10-13T06:00:27.684Z,4151.7
2022-10-13T06:06:04.398Z,4153.7
2022-10-13T06:11:39.187Z,4152
2022-10-13T06:17:15.580Z,4150.8
2022-10-13T06:22:50.346Z,4152.8
2022-10-13T06:28:27.040Z,4151.8
2022-10-13T06:34:02.182Z,4149.8
2022-10-13T06:39:37.287Z,4150.3
2022-10-13T06:45:12.060Z,4147.1
2022-10-13T06:50:47.373Z,4151.8
2022-10-13T06:56:22.039Z,4149.3
2022-10-13T07:01:57.145Z,4153
2022-10-13T07:07:33.945Z,4162.5
2022-10-13T07:13:09.684Z,4161.7
2022-10-13T07:18:45.033Z,4155.2
2022-10-13T07:24:21.247Z,4165.7
2022-10-13T07:29:56.145Z,4165.6
2022-10-13T07:35:33.645Z,4179.3
2022-10-13T07:41:09.147Z,4164.7
2022-10-13T07:46:44.123Z,4162.5
2022-10-13T07:52:23.350Z,4169.7
2022-10-13T07:58:07.940Z,4185.5
2022-10-13T08:03:51.497Z,4186.3
2022-10-13T08:09:30.625Z,4184.5
2022-10-13T08:15:10.476Z,4193.9
2022-10-13T08:21:28.376Z,4189.2
2022-10-13T08:27:18.702Z,4209.1
2022-10-13T08:32:55.784Z,4200.2
2022-10-13T08:38:42.655Z,4197.7
2022-10-13T08:45:51.487Z,4198.7
2022-10-13T08:51:28.143Z,4204.6
2022-10-13T08:57:03.643Z,4204.8
2022-10-13T09:02:38.413Z,4200.6
2022-10-13T09:08:13.956Z,4216.1
2022-10-13T09:13:48.678Z,4213.5
2022-10-13T09:19:23.495Z,4205.3
2022-10-13T09:25:07.909Z,4203.4
2022-10-13T09:30:42.784Z,4205.3
2022-10-13T09:36:38.854Z,4212.3
2022-10-13T09:42:15.154Z,4215.1
2022-10-13T09:47:50.315Z,4204.9
2022-10-13T09:53:25.281Z,4219.2
2022-10-13T09:59:00.726Z,4216
2022-10-13T10:04:35.970Z,4211.1
2022-10-13T10:10:11.253Z,4224.2
2022-10-13T10:15:47.141Z,4211
2022-10-13T10:21:22.229Z,4219.3
2022-10-13T10:26:57.336Z,4217.8
2022-10-13T10:32:32.317Z,4207.6
2022-10-13T10:38:07.365Z,4224
2022-10-13T10:43:42.575Z,4225.5
2022-10-13T10:49:17.823Z,4220
2022-10-13T10:54:52.732Z,4211.6
2022-10-13T11:00:28.697Z,4224.3
2022-10-13T11:06:05.537Z,4218.8
2022-10-13T11:11:40.604Z,4227.7
2022-10-13T11:17:15.474Z,4214.3
2022-10-13T11:22:52.225Z,4222
2022-10-13T11:28:28.143Z,4216.8
2022-10-13T11:34:03.263Z,4213.1
2022-10-13T11:39:41.399Z,4226
2022-10-13T11:45:16.219Z,4219.7
2022-10-13T11:50:51.130Z,4224.5
2022-10-13T11:56:26.433Z,4227.4
2022-10-13T12:02:02.258Z,4220.5
2022-10-13T12:07:37.282Z,4227.7
2022-10-13T12:13:12.589Z,4229.9
2022-10-13T12:18:47.549Z,4221.7
2022-10-13T12:24:23.839Z,4222.7
2022-10-13T12:29:59.375Z,4230.9
2022-10-13T12:35:34.186Z,4220.3
2022-10-13T12:41:09.114Z,4226.2
2022-10-13T12:46:44.547Z,4214.5
2022-10-13T12:52:22.676Z,4220.2
2022-10-13T12:57:58.958Z,4227.7
2022-10-13T13:03:34.876Z,4221.5
2022-10-13T13:09:10.066Z,4231.4
2022-10-13T13:14:45.958Z,4222.2
2022-10-13T13:20:21.248Z,4220.7
2022-10-13T13:25:55.913Z,4226.4
2022-10-13T13:31:30.880Z,4227.4
2022-10-13T13:37:06.452Z,4220.3
2022-10-13T13:42:41.484Z,4222.8
2022-10-13T13:48:16.526Z,4227.9
2022-10-13T13:53:51.813Z,4217.1
2022-10-13T13:59:28.030Z,4227.9
2022-10-13T14:05:03.132Z,4219.8
2022-10-13T14:10:38.050Z,4225
2022-10-13T14:16:14.345Z,4227.7
2022-10-13T14:21:49.436Z,4221
2022-10-13T14:27:24.395Z,4221.3
2022-10-13T14:32:59.684Z,4214
2022-10-13T14:38:34.566Z,4216
2022-10-13T14:44:09.589Z,4220.7
2022-10-13T14:49:44.638Z,4224.9
2022-10-13T14:55:19.678Z,4222.8
2022-10-13T15:00:54.760Z,4209.4
2022-10-13T15:06:30.287Z,4213
2022-10-13T15:12:05.297Z,4217.5
2022-10-13T15:17:40.250Z,4206.8
2022-10-13T15:23:15.466Z,4206.4
2022-10-13T15:28:51.734Z,4207.1
2022-10-13T15:34:26.853Z,4207.1
2022-10-13T15:40:02.201Z,4207.4
2022-10-13T15:45:37.164Z,4204.4
2022-10-13T15:51:12.241Z,4201.1
2022-10-13T15:56:47.190Z,4202.6
2022-10-13T16:02:24.645Z,4205.9
2022-10-13T16:08:01.464Z,4205.4
2022-10-13T16:13:36.275Z,4204.8
2022-10-13T16:19:11.155Z,4209.3
2022-10-13T16:24:47.118Z,4207.1
2022-10-13T16:30:21.890Z,4204.9
2022-10-13T16:35:56.650Z,4203.1
2022-10-13T16:41:31.814Z,4200.1
2022-10-13T16:47:06.608Z,4199.9
2022-10-13T16:52:41.311Z,4202.1
2022-10-13T16:58:16.961Z,4200.1
2022-10-13T17:03:51.786Z,4199.9
2022-10-13T17:09:26.585Z,4196.4
2022-10-13T17:15:01.725Z,4197.4
2022-10-13T17:20:37.696Z,4196.5
2022-10-13T17:26:12.548Z,4195.9
2022-10-13T17:31:47.395Z,4197.6
2022-10-13T17:37:24.696Z,4195
2022-10-13T17:42:59.487Z,4194.2
2022-10-13T17:48:35.056Z,4193
2022-10-13T17:54:17.648Z,4195.7
2022-10-13T17:59:52.666Z,4193.7
2022-10-13T18:05:27.598Z,4194.4
2022-10-13T18:11:09.975Z,4192.4
2022-10-13T18:16:46.413Z,4193.9
2022-10-13T18:22:21.379Z,4194.5
2022-10-13T18:27:56.382Z,4193.2
2022-10-13T18:33:33.847Z,4190.8
2022-10-13T18:39:08.730Z,4193.9
2022-10-13T18:44:43.519Z,4189.7
2022-10-13T18:50:35.860Z,4191.2
2022-10-13T18:56:10.818Z,4188
2022-10-13T19:01:45.862Z,4191.9
2022-10-13T19:07:24.284Z,4190.2
2022-10-13T19:12:59.185Z,4186.5
2022-10-13T19:18:34.085Z,4187.8
2022-10-13T19:24:09.251Z,4188
2022-10-13T19:29:44.217Z,4188.3
2022-10-13T19:35:19.012Z,4185.8
2022-10-13T19:40:53.979Z,4185.8
2022-10-13T19:46:29.130Z,4184
2022-10-13T19:52:04.198Z,4185.2
2022-10-13T19:57:38.975Z,4184.5
2022-10-13T20:03:14.097Z,4184.1
2022-10-13T20:08:49.237Z,4184.3
2022-10-13T20:14:24.392Z,4185.8
2022-10-13T20:20:06.782Z,4183.5
2022-10-13T20:25:41.728Z,4184.8
2022-10-13T20:31:16.591Z,4184
2022-10-13T20:36:51.857Z,4180.8
2022-10-13T20:42:27.131Z,4186.2
2022-10-13T20:48:01.900Z,4180.6
2022-10-13T20:53:36.738Z,4185.2
2022-10-13T20:59:11.416Z,4180.5
2022-10-13T21:04:47.347Z,4182.6
2022-10-13T21:10:22.410Z,4179.1
2022-10-13T21:15:57.440Z,4183
2022-10-13T21:21:33.507Z,4178.1
2022-10-13T21:27:09.051Z,4183.3
2022-10-13T21:32:45.114Z,4180
2022-10-13T21:38:19.954Z,4180.1
2022-10-13T21:43:55.133Z,4178
2022-10-13T21:49:29.960Z,4177.3
2022-10-13T21:55:04.594Z,4178.1
2022-10-13T22:00:41.226Z,4180.1
2022-10-13T22:06:20.949Z,4180.6
2022-10-13T22:11:57.718Z,4178
2022-10-13T22:17:32.663Z,4178.5
2022-10-13T22:23:07.583Z,4176.3
2022-10-13T22:28:43.724Z,4178.6
2022-10-13T22:34:19.883Z,4178
2022-10-13T22:39:54.814Z,4174.8
2022-10-13T22:45:29.786Z,4177.8
2022-10-13T22:51:04.944Z,4175.4
2022-10-13T22:56:39.802Z,4177.1
2022-10-13T23:02:15.027Z,4174.9
2022-10-13T23:07:50.350Z,4174.4
2022-10-13T23:13:25.085Z,4175.8
2022-10-13T23:19:00.786Z,4178
2022-10-13T23:24:36.187Z,4173.6
2022-10-13T23:30:11.136Z,4174.1
2022-10-13T23:35:47.153Z,4175.1
2022-10-13T23:41:22.098Z,4175.4
2022-10-13T23:46:57.289Z,4175.3
2022-10-13T23:52:32.410Z,4171.4
2022-10-13T23:58:07.604Z,4172.9
